sensor_id;sensor_type;location;lat;lon;timestamp;pressure;altitude;pressure_sealevel;temperature;humidity
19831;BME280;10076;52.008;4.708;2023-05-20T00:01:26;102532.88;;;15.65;100.00
19831;BME280;10076;52.008;4.708;2023-05-20T00:03:51;102529.69;;;15.32;100.00
19831;BME280;10076;52.008;4.708;2023-05-20T00:06:16;102537.41;;;15.36;100.00
19831;BME280;10076;52.008;4.708;2023-05-20T00:08:41;102549.91;;;15.62;100.00
19831;BME280;10076;52.008;4.708;2023-05-20T00:11:07;102537.78;;;15.44;100.00
19831;BME280;10076;52.008;4.708;2023-05-20T00:13:32;102541.28;;;15.45;100.00
19831;BME280;10076;52.008;4.708;2023-05-20T00:16:00;102542.44;;;15.41;100.00
19831;BME280;10076;52.008;4.708;2023-05-20T00:18:25;102538.63;;;15.45;100.00
19831;BME280;10076;52.008;4.708;2023-05-20T00:20:50;102538.34;;;15.49;100.00
19831;BME280;10076;52.008;4.708;2023-05-20T00:23:17;102530.63;;;15.45;100.00
19831;BME280;10076;52.008;4.708;2023-05-20T00:25:42;102537.13;;;15.41;100.00
19831;BME280;10076;52.008;4.708;2023-05-20T00:28:07;102533.41;;;15.29;100.00
19831;BME280;10076;52.008;4.708;2023-05-20T00:30:33;102540.66;;;15.27;100.00
19831;BME280;10076;52.008;4.708;2023-05-20T00:32:58;102538.63;;;15.31;100.00
19831;BME280;10076;52.008;4.708;2023-05-20T00:35:23;102536.94;;;15.30;100.00
19831;BME280;10076;52.008;4.708;2023-05-20T00:37:48;102532.00;;;15.24;100.00
19831;BME280;10076;52.008;4.708;2023-05-20T00:40:14;102522.09;;;15.12;100.00
19831;BME280;10076;52.008;4.708;2023-05-20T00:42:40;102535.34;;;15.27;100.00
19831;BME280;10076;52.008;4.708;2023-05-20T00:45:06;102532.06;;;15.22;100.00
19831;BME280;10076;52.008;4.708;2023-05-20T00:47:34;102523.97;;;14.96;100.00
19831;BME280;10076;52.008;4.708;2023-05-20T00:50:00;102531.13;;;15.10;100.00
19831;BME280;10076;52.008;4.708;2023-05-20T00:52:30;102534.34;;;15.15;100.00
19831;BME280;10076;52.008;4.708;2023-05-20T00:54:56;102520.38;;;15.11;100.00
19831;BME280;10076;52.008;4.708;2023-05-20T00:57:22;102521.41;;;14.95;100.00
19831;BME280;10076;52.008;4.708;2023-05-20T00:59:47;102521.59;;;15.06;100.00
19831;BME280;10076;52.008;4.708;2023-05-20T01:02:13;102521.03;;;15.15;100.00
19831;BME280;10076;52.008;4.708;2023-05-20T01:04:38;102517.25;;;15.05;100.00
19831;BME280;10076;52.008;4.708;2023-05-20T01:07:04;102516.78;;;15.12;100.00
19831;BME280;10076;52.008;4.708;2023-05-20T01:09:31;102514.59;;;15.05;100.00
19831;BME280;10076;52.008;4.708;2023-05-20T01:12:19;102514.59;;;15.05;100.00
19831;BME280;10076;52.008;4.708;2023-05-20T01:14:49;102512.00;;;15.03;100.00
19831;BME280;10076;52.008;4.708;2023-05-20T01:17:21;102508.22;;;14.93;100.00
19831;BME280;10076;52.008;4.708;2023-05-20T01:19:51;102500.63;;;14.87;100.00
19831;BME280;10076;52.008;4.708;2023-05-20T01:22:23;102504.22;;;14.86;100.00
19831;BME280;10076;52.008;4.708;2023-05-20T01:24:48;102500.06;;;14.82;100.00
19831;BME280;10076;52.008;4.708;2023-05-20T01:27:13;102502.44;;;14.87;100.00
19831;BME280;10076;52.008;4.708;2023-05-20T01:29:40;102499.28;;;14.66;100.00
19831;BME280;10076;52.008;4.708;2023-05-20T01:34:42;102499.28;;;14.80;100.00
19831;BME280;10076;52.008;4.708;2023-05-20T01:37:09;102497.69;;;14.92;100.00
19831;BME280;10076;52.008;4.708;2023-05-20T01:39:37;102488.75;;;14.93;100.00
19831;BME280;10076;52.008;4.708;2023-05-20T01:42:04;102489.38;;;14.96;100.00
19831;BME280;10076;52.008;4.708;2023-05-20T01:44:30;102479.78;;;14.94;100.00
19831;BME280;10076;52.008;4.708;2023-05-20T01:46:55;102485.13;;;14.94;100.00
19831;BME280;10076;52.008;4.708;2023-05-20T01:49:20;102487.50;;;14.98;100.00
19831;BME280;10076;52.008;4.708;2023-05-20T01:51:46;102482.75;;;14.89;100.00
19831;BME280;10076;52.008;4.708;2023-05-20T01:54:11;102483.91;;;14.71;100.00
19831;BME280;10076;52.008;4.708;2023-05-20T01:56:36;102486.47;;;14.73;100.00
19831;BME280;10076;52.008;4.708;2023-05-20T01:59:02;102484.84;;;14.70;100.00
19831;BME280;10076;52.008;4.708;2023-05-20T02:01:27;102476.41;;;14.64;100.00
19831;BME280;10076;52.008;4.708;2023-05-20T02:03:52;102485.25;;;14.78;100.00
19831;BME280;10076;52.008;4.708;2023-05-20T02:06:17;102485.41;;;14.75;100.00
19831;BME280;10076;52.008;4.708;2023-05-20T02:08:43;102482.00;;;14.87;100.00
19831;BME280;10076;52.008;4.708;2023-05-20T02:11:08;102482.84;;;14.74;100.00
19831;BME280;10076;52.008;4.708;2023-05-20T02:13:33;102481.53;;;14.67;100.00
19831;BME280;10076;52.008;4.708;2023-05-20T02:15:58;102481.25;;;14.71;100.00
19831;BME280;10076;52.008;4.708;2023-05-20T02:18:24;102478.22;;;14.77;100.00
19831;BME280;10076;52.008;4.708;2023-05-20T02:20:51;102487.88;;;14.92;100.00
19831;BME280;10076;52.008;4.708;2023-05-20T02:23:16;102492.53;;;14.89;100.00
19831;BME280;10076;52.008;4.708;2023-05-20T02:25:42;102485.22;;;14.64;100.00
19831;BME280;10076;52.008;4.708;2023-05-20T02:28:07;102488.66;;;14.66;100.00
19831;BME280;10076;52.008;4.708;2023-05-20T02:30:35;102485.03;;;14.81;100.00
19831;BME280;10076;52.008;4.708;2023-05-20T02:33:01;102482.28;;;14.97;100.00
19831;BME280;10076;52.008;4.708;2023-05-20T02:35:26;102482.00;;;14.87;100.00
19831;BME280;10076;52.008;4.708;2023-05-20T02:37:51;102474.97;;;14.72;100.00
19831;BME280;10076;52.008;4.708;2023-05-20T02:40:17;102480.31;;;14.72;100.00
19831;BME280;10076;52.008;4.708;2023-05-20T02:42:42;102482.84;;;14.88;100.00
19831;BME280;10076;52.008;4.708;2023-05-20T02:45:08;102481.53;;;14.81;100.00
19831;BME280;10076;52.008;4.708;2023-05-20T02:47:33;102475.44;;;14.79;100.00
19831;BME280;10076;52.008;4.708;2023-05-20T02:49:58;102471.56;;;14.70;100.00
19831;BME280;10076;52.008;4.708;2023-05-20T02:52:23;102471.25;;;14.61;100.00
19831;BME280;10076;52.008;4.708;2023-05-20T02:54:49;102470.97;;;14.51;100.00
19831;BME280;10076;52.008;4.708;2023-05-20T02:57:14;102469.75;;;14.57;100.00
19831;BME280;10076;52.008;4.708;2023-05-20T02:59:40;102475.59;;;14.48;100.00
19831;BME280;10076;52.008;4.708;2023-05-20T03:02:06;102469.25;;;14.37;100.00
19831;BME280;10076;52.008;4.708;2023-05-20T03:04:31;102471.91;;;14.37;100.00
19831;BME280;10076;52.008;4.708;2023-05-20T03:06:56;102468.44;;;14.64;100.00
19831;BME280;10076;52.008;4.708;2023-05-20T03:09:23;102463.94;;;14.50;100.00
19831;BME280;10076;52.008;4.708;2023-05-20T03:11:49;102472.09;;;14.48;100.00
19831;BME280;10076;52.008;4.708;2023-05-20T03:14:14;102473.16;;;14.45;100.00
19831;BME280;10076;52.008;4.708;2023-05-20T03:16:40;102472.00;;;14.35;100.00
19831;BME280;10076;52.008;4.708;2023-05-20T03:19:05;102474.34;;;14.26;100.00
19831;BME280;10076;52.008;4.708;2023-05-20T03:21:31;102471.34;;;14.32;100.00
19831;BME280;10076;52.008;4.708;2023-05-20T03:23:56;102471.13;;;14.21;100.00
19831;BME280;10076;52.008;4.708;2023-05-20T03:26:21;102475.25;;;14.11;100.00
19831;BME280;10076;52.008;4.708;2023-05-20T03:28:47;102469.09;;;14.10;100.00
19831;BME280;10076;52.008;4.708;2023-05-20T03:31:12;102471.13;;;14.05;100.00
19831;BME280;10076;52.008;4.708;2023-05-20T03:33:37;102474.72;;;14.20;100.00
19831;BME280;10076;52.008;4.708;2023-05-20T03:36:03;102478.22;;;14.20;100.00
19831;BME280;10076;52.008;4.708;2023-05-20T03:38:29;102484.97;;;14.26;100.00
19831;BME280;10076;52.008;4.708;2023-05-20T03:40:54;102483.47;;;14.36;100.00
19831;BME280;10076;52.008;4.708;2023-05-20T03:43:19;102474.66;;;14.35;100.00
19831;BME280;10076;52.008;4.708;2023-05-20T03:45:45;102469.34;;;14.35;100.00
19831;BME280;10076;52.008;4.708;2023-05-20T03:48:10;102473.41;;;14.41;100.00
19831;BME280;10076;52.008;4.708;2023-05-20T03:50:35;102472.94;;;14.34;100.00
19831;BME280;10076;52.008;4.708;2023-05-20T03:53:01;102473.88;;;14.33;100.00
19831;BME280;10076;52.008;4.708;2023-05-20T03:55:26;102469.91;;;14.40;100.00
19831;BME280;10076;52.008;4.708;2023-05-20T03:57:51;102473.25;;;14.44;100.00
19831;BME280;10076;52.008;4.708;2023-05-20T04:00:17;102463.09;;;14.50;100.00
19831;BME280;10076;52.008;4.708;2023-05-20T04:02:42;102458.97;;;14.45;100.00
19831;BME280;10076;52.008;4.708;2023-05-20T04:05:08;102466.75;;;14.34;100.00
19831;BME280;10076;52.008;4.708;2023-05-20T04:07:34;102455.75;;;14.40;100.00
19831;BME280;10076;52.008;4.708;2023-05-20T04:10:00;102463.63;;;14.27;100.00
19831;BME280;10076;52.008;4.708;2023-05-20T04:12:26;102458.94;;;14.17;100.00
19831;BME280;10076;52.008;4.708;2023-05-20T04:14:58;102463.72;;;14.26;100.00
19831;BME280;10076;52.008;4.708;2023-05-20T04:17:28;102463.72;;;14.26;100.00
19831;BME280;10076;52.008;4.708;2023-05-20T04:19:57;102470.25;;;14.20;100.00
19831;BME280;10076;52.008;4.708;2023-05-20T04:22:24;102468.56;;;14.47;100.00
19831;BME280;10076;52.008;4.708;2023-05-20T04:24:49;102468.09;;;14.41;100.00
19831;BME280;10076;52.008;4.708;2023-05-20T04:27:14;102465.06;;;14.47;100.00
19831;BME280;10076;52.008;4.708;2023-05-20T04:29:40;102472.88;;;14.63;100.00
19831;BME280;10076;52.008;4.708;2023-05-20T04:32:12;102462.63;;;14.44;100.00
19831;BME280;10076;52.008;4.708;2023-05-20T04:34:37;102473.34;;;14.56;100.00
19831;BME280;10076;52.008;4.708;2023-05-20T04:37:03;102467.72;;;14.47;100.00
19831;BME280;10076;52.008;4.708;2023-05-20T04:39:28;102471.53;;;14.56;100.00
19831;BME280;10076;52.008;4.708;2023-05-20T04:41:54;102471.34;;;14.46;100.00
19831;BME280;10076;52.008;4.708;2023-05-20T04:44:19;102472.97;;;14.62;100.00
19831;BME280;10076;52.008;4.708;2023-05-20T04:46:45;102477.03;;;14.67;100.00
19831;BME280;10076;52.008;4.708;2023-05-20T04:49:10;102481.97;;;14.73;100.00
19831;BME280;10076;52.008;4.708;2023-05-20T04:51:35;102487.91;;;14.78;100.00
19831;BME280;10076;52.008;4.708;2023-05-20T04:54:01;102483.31;;;14.80;100.00
19831;BME280;10076;52.008;4.708;2023-05-20T04:56:26;102483.53;;;14.77;100.00
19831;BME280;10076;52.008;4.708;2023-05-20T04:58:51;102486.38;;;14.88;100.00
19831;BME280;10076;52.008;4.708;2023-05-20T05:01:17;102483.78;;;15.15;100.00
19831;BME280;10076;52.008;4.708;2023-05-20T05:03:42;102478.56;;;15.13;100.00
19831;BME280;10076;52.008;4.708;2023-05-20T05:06:07;102476.19;;;15.09;100.00
19831;BME280;10076;52.008;4.708;2023-05-20T05:08:33;102470.59;;;15.13;100.00
19831;BME280;10076;52.008;4.708;2023-05-20T05:10:58;102473.44;;;15.10;100.00
19831;BME280;10076;52.008;4.708;2023-05-20T05:13:23;102471.03;;;15.06;100.00
19831;BME280;10076;52.008;4.708;2023-05-20T05:16:00;102469.25;;;15.34;100.00
19831;BME280;10076;52.008;4.708;2023-05-20T05:18:25;102465.28;;;15.53;100.00
19831;BME280;10076;52.008;4.708;2023-05-20T05:20:58;102462.97;;;15.35;100.00
19831;BME280;10076;52.008;4.708;2023-05-20T05:23:24;102464.47;;;15.39;100.00
19831;BME280;10076;52.008;4.708;2023-05-20T05:25:50;102467.94;;;15.53;100.00
19831;BME280;10076;52.008;4.708;2023-05-20T05:28:16;102462.69;;;15.39;100.00
19831;BME280;10076;52.008;4.708;2023-05-20T05:30:41;102461.44;;;15.57;100.00
19831;BME280;10076;52.008;4.708;2023-05-20T05:33:07;102457.31;;;15.66;100.00
19831;BME280;10076;52.008;4.708;2023-05-20T05:35:32;102455.16;;;15.85;100.00
19831;BME280;10076;52.008;4.708;2023-05-20T05:37:57;102461.69;;;15.93;100.00
19831;BME280;10076;52.008;4.708;2023-05-20T05:40:23;102458.31;;;16.03;100.00
19831;BME280;10076;52.008;4.708;2023-05-20T05:42:48;102457.03;;;16.09;100.00
19831;BME280;10076;52.008;4.708;2023-05-20T05:45:13;102464.88;;;15.98;100.00
19831;BME280;10076;52.008;4.708;2023-05-20T05:47:38;102466.09;;;16.06;100.00
19831;BME280;10076;52.008;4.708;2023-05-20T05:50:04;102465.31;;;16.31;100.00
19831;BME280;10076;52.008;4.708;2023-05-20T05:52:30;102450.97;;;16.19;100.00
19831;BME280;10076;52.008;4.708;2023-05-20T05:54:55;102454.47;;;16.46;100.00
19831;BME280;10076;52.008;4.708;2023-05-20T05:57:20;102453.16;;;16.39;100.00
19831;BME280;10076;52.008;4.708;2023-05-20T05:59:46;102451.56;;;16.49;100.00
19831;BME280;10076;52.008;4.708;2023-05-20T06:02:11;102458.38;;;16.53;100.00
19831;BME280;10076;52.008;4.708;2023-05-20T06:04:38;102461.94;;;16.54;100.00
19831;BME280;10076;52.008;4.708;2023-05-20T06:07:04;102461.69;;;16.44;100.00
19831;BME280;10076;52.008;4.708;2023-05-20T06:09:29;102456.81;;;16.63;100.00
19831;BME280;10076;52.008;4.708;2023-05-20T06:11:54;102459.34;;;16.64;100.00
19831;BME280;10076;52.008;4.708;2023-05-20T06:14:20;102462.22;;;16.61;100.00
19831;BME280;10076;52.008;4.708;2023-05-20T06:16:45;102460.28;;;16.76;100.00
19831;BME280;10076;52.008;4.708;2023-05-20T06:19:10;102457.44;;;16.79;100.00
19831;BME280;10076;52.008;4.708;2023-05-20T06:21:36;102453.47;;;16.72;100.00
19831;BME280;10076;52.008;4.708;2023-05-20T06:24:01;102459.34;;;16.77;100.00
19831;BME280;10076;52.008;4.708;2023-05-20T06:26:26;102457.31;;;16.80;100.00
19831;BME280;10076;52.008;4.708;2023-05-20T06:28:52;102455.03;;;16.87;100.00
19831;BME280;10076;52.008;4.708;2023-05-20T06:31:17;102464.03;;;16.86;100.00
19831;BME280;10076;52.008;4.708;2023-05-20T06:33:42;102465.53;;;16.90;100.00
19831;BME280;10076;52.008;4.708;2023-05-20T06:36:08;102462.75;;;17.04;100.00
19831;BME280;10076;52.008;4.708;2023-05-20T06:38:33;102457.59;;;17.01;100.00
19831;BME280;10076;52.008;4.708;2023-05-20T06:40:58;102447.75;;;17.14;100.00
19831;BME280;10076;52.008;4.708;2023-05-20T06:43:23;102449.03;;;17.21;100.00
19831;BME280;10076;52.008;4.708;2023-05-20T06:45:49;102454.78;;;17.27;100.00
19831;BME280;10076;52.008;4.708;2023-05-20T06:48:15;102455.31;;;17.32;100.00
19831;BME280;10076;52.008;4.708;2023-05-20T06:50:40;102447.28;;;17.44;100.00
19831;BME280;10076;52.008;4.708;2023-05-20T06:53:05;102441.00;;;17.33;100.00
19831;BME280;10076;52.008;4.708;2023-05-20T06:55:31;102445.66;;;17.42;100.00
19831;BME280;10076;52.008;4.708;2023-05-20T06:57:56;102438.16;;;17.70;100.00
19831;BME280;10076;52.008;4.708;2023-05-20T07:00:21;102435.78;;;17.78;100.00
19831;BME280;10076;52.008;4.708;2023-05-20T07:02:47;102438.09;;;17.83;100.00
19831;BME280;10076;52.008;4.708;2023-05-20T07:05:12;102439.06;;;17.82;100.00
19831;BME280;10076;52.008;4.708;2023-05-20T07:07:38;102428.31;;;17.94;100.00
19831;BME280;10076;52.008;4.708;2023-05-20T07:10:04;102441.81;;;18.03;100.00
19831;BME280;10076;52.008;4.708;2023-05-20T07:12:30;102428.13;;;18.08;100.00
19831;BME280;10076;52.008;4.708;2023-05-20T07:14:56;102444.22;;;18.19;100.00
19831;BME280;10076;52.008;4.708;2023-05-20T07:17:23;102431.78;;;18.18;100.00
19831;BME280;10076;52.008;4.708;2023-05-20T07:19:48;102430.88;;;18.41;100.00
19831;BME280;10076;52.008;4.708;2023-05-20T07:22:13;102440.75;;;18.62;100.00
19831;BME280;10076;52.008;4.708;2023-05-20T07:24:39;102432.00;;;18.60;100.00
19831;BME280;10076;52.008;4.708;2023-05-20T07:27:04;102437.00;;;18.75;100.00
19831;BME280;10076;52.008;4.708;2023-05-20T07:29:30;102434.06;;;18.89;100.00
19831;BME280;10076;52.008;4.708;2023-05-20T07:31:55;102427.75;;;18.79;100.00
19831;BME280;10076;52.008;4.708;2023-05-20T07:34:20;102427.84;;;19.00;100.00
19831;BME280;10076;52.008;4.708;2023-05-20T07:36:47;102421.25;;;19.04;100.00
19831;BME280;10076;52.008;4.708;2023-05-20T07:39:13;102419.94;;;19.20;100.00
19831;BME280;10076;52.008;4.708;2023-05-20T07:41:39;102419.34;;;19.17;100.00
19831;BME280;10076;52.008;4.708;2023-05-20T07:44:05;102418.97;;;19.21;100.00
19831;BME280;10076;52.008;4.708;2023-05-20T07:46:33;102416.41;;;19.20;100.00
19831;BME280;10076;52.008;4.708;2023-05-20T07:48:58;102416.88;;;19.36;100.00
19831;BME280;10076;52.008;4.708;2023-05-20T07:51:24;102404.03;;;19.50;100.00
19831;BME280;10076;52.008;4.708;2023-05-20T07:53:49;102411.94;;;19.51;100.00
19831;BME280;10076;52.008;4.708;2023-05-20T07:56:15;102403.28;;;19.48;100.00
19831;BME280;10076;52.008;4.708;2023-05-20T07:58:41;102403.06;;;19.51;100.00
19831;BME280;10076;52.008;4.708;2023-05-20T08:01:06;102402.75;;;19.65;100.00
19831;BME280;10076;52.008;4.708;2023-05-20T08:03:33;102401.94;;;19.85;100.00
19831;BME280;10076;52.008;4.708;2023-05-20T08:05:59;102398.06;;;19.78;100.00
19831;BME280;10076;52.008;4.708;2023-05-20T08:08:24;102404.28;;;20.10;100.00
19831;BME280;10076;52.008;4.708;2023-05-20T08:10:50;102407.13;;;20.17;100.00
19831;BME280;10076;52.008;4.708;2023-05-20T08:13:16;102399.00;;;20.28;100.00
19831;BME280;10076;52.008;4.708;2023-05-20T08:15:41;102405.09;;;20.30;100.00
19831;BME280;10076;52.008;4.708;2023-05-20T08:18:07;102404.63;;;20.46;100.00
19831;BME280;10076;52.008;4.708;2023-05-20T08:20:32;102400.31;;;20.54;100.00
19831;BME280;10076;52.008;4.708;2023-05-20T08:22:57;102402.28;;;20.82;100.00
19831;BME280;10076;52.008;4.708;2023-05-20T08:25:23;102401.31;;;20.83;100.00
19831;BME280;10076;52.008;4.708;2023-05-20T08:27:48;102406.00;;;20.90;100.00
19831;BME280;10076;52.008;4.708;2023-05-20T08:30:13;102402.69;;;21.17;100.00
19831;BME280;10076;52.008;4.708;2023-05-20T08:32:39;102408.81;;;21.28;100.00
19831;BME280;10076;52.008;4.708;2023-05-20T08:35:06;102403.72;;;21.44;100.00
19831;BME280;10076;52.008;4.708;2023-05-20T08:37:31;102405.72;;;21.52;100.00
19831;BME280;10076;52.008;4.708;2023-05-20T08:39:56;102396.97;;;21.68;100.00
19831;BME280;10076;52.008;4.708;2023-05-20T08:42:22;102393.16;;;21.80;100.00
19831;BME280;10076;52.008;4.708;2023-05-20T08:44:50;102390.44;;;21.99;100.00
19831;BME280;10076;52.008;4.708;2023-05-20T08:47:16;102382.47;;;22.17;100.00
19831;BME280;10076;52.008;4.708;2023-05-20T08:49:42;102385.03;;;22.18;100.00
19831;BME280;10076;52.008;4.708;2023-05-20T08:52:08;102382.69;;;22.51;100.00
19831;BME280;10076;52.008;4.708;2023-05-20T08:54:46;102379.25;;;22.59;100.00
19831;BME280;10076;52.008;4.708;2023-05-20T08:57:12;102378.31;;;22.87;100.00
19831;BME280;10076;52.008;4.708;2023-05-20T08:59:41;102368.31;;;22.96;100.00
19831;BME280;10076;52.008;4.708;2023-05-20T09:02:07;102370.44;;;23.02;100.00
19831;BME280;10076;52.008;4.708;2023-05-20T09:04:33;102368.63;;;23.20;100.00
19831;BME280;10076;52.008;4.708;2023-05-20T09:06:58;102362.88;;;23.50;100.00
19831;BME280;10076;52.008;4.708;2023-05-20T09:09:24;102369.31;;;23.57;100.00
19831;BME280;10076;52.008;4.708;2023-05-20T09:11:49;102366.31;;;23.60;100.00
19831;BME280;10076;52.008;4.708;2023-05-20T09:14:14;102365.50;;;23.77;100.00
19831;BME280;10076;52.008;4.708;2023-05-20T09:16:40;102362.25;;;23.91;100.00
19831;BME280;10076;52.008;4.708;2023-05-20T09:19:05;102362.47;;;23.97;100.00
19831;BME280;10076;52.008;4.708;2023-05-20T09:21:31;102368.03;;;24.21;100.00
19831;BME280;10076;52.008;4.708;2023-05-20T09:24:00;102369.59;;;24.82;100.00
19831;BME280;10076;52.008;4.708;2023-05-20T09:26:27;102359.50;;;25.49;96.34
19831;BME280;10076;52.008;4.708;2023-05-20T09:28:57;102358.00;;;25.94;86.10
19831;BME280;10076;52.008;4.708;2023-05-20T09:31:41;102352.91;;;25.60;89.25
19831;BME280;10076;52.008;4.708;2023-05-20T09:34:06;102350.69;;;25.39;92.42
19831;BME280;10076;52.008;4.708;2023-05-20T09:36:33;102344.78;;;25.36;86.55
19831;BME280;10076;52.008;4.708;2023-05-20T09:39:00;102345.13;;;25.41;89.19
19831;BME280;10076;52.008;4.708;2023-05-20T09:41:35;102344.06;;;25.26;91.38
19831;BME280;10076;52.008;4.708;2023-05-20T09:44:02;102342.59;;;25.55;94.07
19831;BME280;10076;52.008;4.708;2023-05-20T09:46:28;102338.31;;;26.48;86.27
19831;BME280;10076;52.008;4.708;2023-05-20T09:48:55;102348.66;;;27.74;75.78
19831;BME280;10076;52.008;4.708;2023-05-20T09:51:22;102345.91;;;28.76;66.35
19831;BME280;10076;52.008;4.708;2023-05-20T09:53:48;102341.56;;;29.66;63.18
19831;BME280;10076;52.008;4.708;2023-05-20T09:56:14;102338.78;;;30.35;59.52
19831;BME280;10076;52.008;4.708;2023-05-20T09:58:43;102333.47;;;30.95;55.59
19831;BME280;10076;52.008;4.708;2023-05-20T10:01:09;102337.34;;;31.20;53.13
19831;BME280;10076;52.008;4.708;2023-05-20T10:03:35;102329.13;;;30.06;54.96
19831;BME280;10076;52.008;4.708;2023-05-20T10:08:40;102325.97;;;31.03;51.46
19831;BME280;10076;52.008;4.708;2023-05-20T10:18:59;102314.59;;;33.86;42.77
19831;BME280;10076;52.008;4.708;2023-05-20T10:21:29;102317.03;;;32.45;43.24
19831;BME280;10076;52.008;4.708;2023-05-20T10:24:05;102316.34;;;31.27;46.62
19831;BME280;10076;52.008;4.708;2023-05-20T10:26:37;102314.34;;;30.48;47.87
19831;BME280;10076;52.008;4.708;2023-05-20T10:29:16;102314.56;;;30.47;49.54
19831;BME280;10076;52.008;4.708;2023-05-20T10:31:48;102302.16;;;31.96;48.71
19831;BME280;10076;52.008;4.708;2023-05-20T10:34:15;102302.50;;;33.69;43.38
19831;BME280;10076;52.008;4.708;2023-05-20T10:36:45;102300.09;;;34.99;40.07
19831;BME280;10076;52.008;4.708;2023-05-20T10:39:15;102298.38;;;35.97;39.83
19831;BME280;10076;52.008;4.708;2023-05-20T10:41:41;102288.63;;;33.88;39.91
19831;BME280;10076;52.008;4.708;2023-05-20T10:44:06;102280.03;;;32.29;40.35
19831;BME280;10076;52.008;4.708;2023-05-20T10:46:33;102280.81;;;32.56;41.50
19831;BME280;10076;52.008;4.708;2023-05-20T10:49:01;102278.53;;;32.40;41.69
19831;BME280;10076;52.008;4.708;2023-05-20T10:51:28;102285.06;;;34.30;41.10
19831;BME280;10076;52.008;4.708;2023-05-20T10:53:54;102286.63;;;36.48;39.76
19831;BME280;10076;52.008;4.708;2023-05-20T10:56:22;102292.75;;;37.61;36.25
19831;BME280;10076;52.008;4.708;2023-05-20T10:58:48;102278.66;;;36.62;35.69
19831;BME280;10076;52.008;4.708;2023-05-20T11:01:14;102278.56;;;36.58;35.11
19831;BME280;10076;52.008;4.708;2023-05-20T11:03:40;102268.97;;;36.60;34.65
19831;BME280;10076;52.008;4.708;2023-05-20T11:06:14;102277.28;;;36.88;34.62
19831;BME280;10076;52.008;4.708;2023-05-20T11:08:40;102271.44;;;36.45;35.77
19831;BME280;10076;52.008;4.708;2023-05-20T11:11:06;102265.34;;;37.10;36.59
19831;BME280;10076;52.008;4.708;2023-05-20T11:13:31;102267.94;;;38.95;36.28
19831;BME280;10076;52.008;4.708;2023-05-20T11:15:57;102255.16;;;40.10;33.41
19831;BME280;10076;52.008;4.708;2023-05-20T11:18:25;102269.59;;;40.17;30.13
19831;BME280;10076;52.008;4.708;2023-05-20T11:20:54;102277.34;;;38.52;30.01
19831;BME280;10076;52.008;4.708;2023-05-20T11:23:19;102265.06;;;37.39;32.32
19831;BME280;10076;52.008;4.708;2023-05-20T11:25:44;102259.56;;;38.64;31.71
19831;BME280;10076;52.008;4.708;2023-05-20T11:28:13;102261.56;;;39.74;28.96
19831;BME280;10076;52.008;4.708;2023-05-20T11:30:41;102257.25;;;40.90;28.35
19831;BME280;10076;52.008;4.708;2023-05-20T11:33:10;102252.75;;;40.74;28.71
19831;BME280;10076;52.008;4.708;2023-05-20T11:35:36;102256.09;;;40.76;29.28
19831;BME280;10076;52.008;4.708;2023-05-20T11:38:04;102254.47;;;42.24;29.00
19831;BME280;10076;52.008;4.708;2023-05-20T11:40:31;102252.72;;;43.49;26.98
19831;BME280;10076;52.008;4.708;2023-05-20T11:42:59;102256.44;;;42.92;26.28
19831;BME280;10076;52.008;4.708;2023-05-20T11:45:25;102253.72;;;41.79;25.98
19831;BME280;10076;52.008;4.708;2023-05-20T11:48:02;102241.78;;;41.34;26.55
19831;BME280;10076;52.008;4.708;2023-05-20T11:50:28;102230.72;;;39.92;27.57
19831;BME280;10076;52.008;4.708;2023-05-20T11:52:58;102225.78;;;40.55;27.47
19831;BME280;10076;52.008;4.708;2023-05-20T11:55:24;102238.44;;;41.81;26.79
19831;BME280;10076;52.008;4.708;2023-05-20T11:57:50;102228.44;;;41.85;26.64
19831;BME280;10076;52.008;4.708;2023-05-20T12:00:16;102225.06;;;40.94;27.11
19831;BME280;10076;52.008;4.708;2023-05-20T12:02:42;102221.19;;;41.05;26.46
19831;BME280;10076;52.008;4.708;2023-05-20T12:05:07;102215.69;;;41.74;26.07
19831;BME280;10076;52.008;4.708;2023-05-20T12:07:33;102225.88;;;42.19;25.43
19831;BME280;10076;52.008;4.708;2023-05-20T12:09:58;102215.69;;;41.45;27.13
19831;BME280;10076;52.008;4.708;2023-05-20T12:12:23;102206.75;;;40.83;26.40
19831;BME280;10076;52.008;4.708;2023-05-20T12:14:49;102201.56;;;41.36;26.31
19831;BME280;10076;52.008;4.708;2023-05-20T12:17:15;102211.66;;;42.25;25.26
19831;BME280;10076;52.008;4.708;2023-05-20T12:19:40;102205.41;;;42.68;24.88
19831;BME280;10076;52.008;4.708;2023-05-20T12:22:05;102198.31;;;39.92;26.70
19831;BME280;10076;52.008;4.708;2023-05-20T12:24:31;102204.66;;;37.38;27.94
19831;BME280;10076;52.008;4.708;2023-05-20T12:26:56;102194.28;;;36.57;29.91
19831;BME280;10076;52.008;4.708;2023-05-20T12:29:22;102201.81;;;35.88;31.14
19831;BME280;10076;52.008;4.708;2023-05-20T12:31:47;102186.97;;;35.88;30.31
19831;BME280;10076;52.008;4.708;2023-05-20T12:34:13;102190.72;;;36.72;29.55
19831;BME280;10076;52.008;4.708;2023-05-20T12:36:38;102184.47;;;36.77;29.78
19831;BME280;10076;52.008;4.708;2023-05-20T12:39:03;102183.78;;;36.98;29.42
19831;BME280;10076;52.008;4.708;2023-05-20T12:41:29;102185.31;;;35.65;30.29
19831;BME280;10076;52.008;4.708;2023-05-20T12:43:54;102182.25;;;33.97;32.59
19831;BME280;10076;52.008;4.708;2023-05-20T12:46:20;102176.09;;;32.73;34.50
19831;BME280;10076;52.008;4.708;2023-05-20T12:48:45;102169.06;;;31.90;35.74
19831;BME280;10076;52.008;4.708;2023-05-20T12:51:10;102168.06;;;31.39;37.71